Terminal Aerodrome Forecast
Issued by NWS Springfield, MO

Home | Current Version | Previous Version | Text Only | Print | Product List | Glossary On
Versions: 1 2 3 4 5 6 7 8 9 10 11 12 13 14 15 16 17 18 19 20 21 22
000
FTUS43 KSGF 310000 AAA
TAFSGF
TAF AMD
KSGF 310041Z 3101/3124 32010KT 5SM -DZ BR OVC007
     FM310700 36005KT 2SM BR OVC003
     FM311500 35008KT P6SM OVC015
     FM311900 36008KT P6SM BKN030=

USA.gov is the U.S. government's official web portal to all federal, state and local government web resources and services.